Time;durP1;ratioP1;P1;durP2;ratioP2;P2;SDS_P1;SDS_P2;PMS_P1;PMS_P2;Temp;Humidity;BMP_temperature;BMP_pressure;BME280_temperature;BME280_humidity;BME280_pressure;Samples;Min_cycle;Max_cycle;Signal;HPM_P1;HPM_P2
2022/12/28 00:01:11;;;;;;;16.35;6.70;;;0.80;99.90;;;;;;4973395;28;20364;-89
2022/12/28 00:03:37;;;;;;;22.67;6.80;;;1.00;99.90;;;;;;4973066;28;20054;-90
2022/12/28 00:06:04;;;;;;;17.10;6.50;;;1.20;99.90;;;;;;4956442;28;20027;-89
2022/12/28 00:08:29;;;;;;;13.50;6.13;;;1.20;99.90;;;;;;5057411;28;20039;-89
2022/12/28 00:11:03;;;;;;;17.85;6.95;;;1.40;99.90;;;;;;4972689;28;20486;-89
2022/12/28 00:13:30;;;;;;;14.73;6.22;;;1.50;99.90;;;;;;4957096;28;20122;-89
2022/12/28 00:15:56;;;;;;;20.85;6.53;;;1.60;99.90;;;;;;4956743;28;20118;-90
2022/12/28 00:18:21;;;;;;;22.20;5.63;;;1.60;99.90;;;;;;4956789;28;20030;-89
2022/12/28 00:20:57;;;;;;;14.13;5.32;;;1.60;99.90;;;;;;4973029;28;20035;-89
2022/12/28 00:23:24;;;;;;;18.63;6.25;;;1.60;99.90;;;;;;4956626;28;20034;-89
2022/12/28 00:25:49;;;;;;;13.60;5.40;;;1.60;99.90;;;;;;4956364;28;20038;-90
2022/12/28 00:28:15;;;;;;;9.48;5.10;;;1.60;99.90;;;;;;4956534;28;20023;-89
2022/12/28 00:30:41;;;;;;;12.40;5.35;;;1.60;99.90;;;;;;4955350;28;20033;-89
2022/12/28 00:33:07;;;;;;;19.27;5.60;;;1.60;99.90;;;;;;4972221;28;20027;-90
2022/12/28 00:35:32;;;;;;;13.65;6.32;;;1.50;99.90;;;;;;4955602;28;20034;-89
2022/12/28 00:37:59;;;;;;;22.17;6.63;;;1.50;99.90;;;;;;4971733;28;20038;-90
2022/12/28 00:40:26;;;;;;;16.38;5.85;;;1.40;99.90;;;;;;4972244;28;20041;-89
2022/12/28 00:43:19;;;;;;;13.05;6.30;;;1.40;99.90;;;;;;4955621;28;20027;-89
2022/12/28 00:45:46;;;;;;;20.08;8.27;;;1.40;99.90;;;;;;5056115;28;20083;-90
2022/12/28 00:48:12;;;;;;;19.85;7.70;;;1.30;99.90;;;;;;4955874;28;20030;-90
2022/12/28 00:50:38;;;;;;;17.45;8.05;;;1.40;99.90;;;;;;4955881;28;20027;-89
2022/12/28 00:53:04;;;;;;;32.42;10.15;;;1.50;99.90;;;;;;4972006;28;20382;-89
2022/12/28 00:55:31;;;;;;;18.60;8.85;;;1.60;99.90;;;;;;4955991;28;20053;-89
2022/12/28 00:58:01;;;;;;;24.77;8.82;;;1.70;99.90;;;;;;4955686;28;20027;-89
2022/12/28 01:00:27;;;;;;;19.83;9.43;;;1.80;99.90;;;;;;4955913;28;20118;-90
2022/12/28 01:02:53;;;;;;;16.35;8.80;;;1.90;99.90;;;;;;5073179;28;20076;-89
2022/12/28 01:05:20;;;;;;;25.88;8.90;;;1.90;99.90;;;;;;4955466;28;20466;-88
2022/12/28 01:07:45;;;;;;;18.95;9.00;;;1.90;99.90;;;;;;4955530;28;20030;-89
2022/12/28 01:10:11;;;;;;;21.88;9.18;;;1.90;99.90;;;;;;4972478;28;20023;-89
2022/12/28 01:12:37;;;;;;;26.63;9.45;;;1.90;99.90;;;;;;4955605;28;20034;-89
2022/12/28 01:15:08;;;;;;;25.00;9.30;;;2.00;99.90;;;;;;4955639;28;20070;-90
2022/12/28 01:17:34;;;;;;;23.88;9.15;;;2.00;99.90;;;;;;4971488;28;20023;-89
2022/12/28 01:23:48;;;;;;;14.25;8.23;;;1.90;99.90;;;;;;4970050;28;20034;-89
2022/12/28 01:26:14;;;;;;;15.45;9.02;;;1.90;99.90;;;;;;4955652;28;20056;-89
2022/12/28 01:28:41;;;;;;;19.83;9.18;;;1.90;99.90;;;;;;5055926;28;20483;-89
2022/12/28 01:31:12;;;;;;;23.92;12.27;;;1.90;99.90;;;;;;4970904;28;20363;-89
2022/12/28 01:33:37;;;;;;;34.00;15.73;;;1.90;99.90;;;;;;4955119;28;20034;-89
2022/12/28 01:36:22;;;;;;;33.67;16.30;;;1.60;99.90;;;;;;4954841;28;20046;-88
2022/12/28 01:38:51;;;;;;;29.58;16.45;;;1.30;99.90;;;;;;4954739;28;20395;-89
2022/12/28 01:41:18;;;;;;;38.72;18.63;;;1.20;99.90;;;;;;5072429;28;20072;-89
2022/12/28 01:44:06;;;;;;;37.78;18.42;;;1.10;99.90;;;;;;4988468;28;20027;-89
2022/12/28 01:46:53;;;;;;;32.53;17.83;;;1.00;99.90;;;;;;4958159;28;20478;-89
2022/12/28 01:49:25;;;;;;;31.63;17.70;;;1.00;99.90;;;;;;4951474;28;20029;-89
2022/12/28 01:52:00;;;;;;;34.20;18.45;;;1.00;99.90;;;;;;4974938;28;20073;-89
2022/12/28 01:54:29;;;;;;;34.40;18.67;;;1.00;99.90;;;;;;4973820;28;20379;-89
2022/12/28 01:56:56;;;;;;;33.13;17.73;;;1.00;99.90;;;;;;4957679;28;20039;-89
2022/12/28 01:59:27;;;;;;;38.00;18.60;;;0.90;99.90;;;;;;4958100;28;20027;-89
2022/12/28 02:01:53;;;;;;;38.10;19.48;;;1.00;99.90;;;;;;4957529;28;20023;-89
2022/12/28 02:04:21;;;;;;;35.33;16.60;;;1.00;99.90;;;;;;4957842;28;20030;-89
2022/12/28 02:06:47;;;;;;;27.60;13.93;;;1.00;99.90;;;;;;4973987;28;20023;-89
2022/12/28 02:09:20;;;;;;;27.48;13.15;;;1.10;99.90;;;;;;4974139;28;20801;-89
2022/12/28 02:11:47;;;;;;;24.17;10.27;;;1.30;99.90;;;;;;4957821;28;20035;-88
2022/12/28 02:14:14;;;;;;;20.40;9.32;;;1.50;99.90;;;;;;4982477;28;20055;-89
2022/12/28 02:16:42;;;;;;;16.08;8.15;;;1.70;99.90;;;;;;5012012;28;20031;-89
2022/12/28 02:19:13;;;;;;;12.88;7.65;;;1.80;99.90;;;;;;4957597;28;20097;-89
2022/12/28 02:22:22;;;;;;;20.52;7.38;;;1.80;99.90;;;;;;4958021;28;20023;-88
2022/12/28 02:25:13;;;;;;;15.57;6.93;;;1.90;99.90;;;;;;5037830;28;20114;-89
2022/12/28 02:28:00;;;;;;;12.52;6.93;;;1.90;99.90;;;;;;4957695;28;20114;-89
2022/12/28 02:30:26;;;;;;;15.50;6.95;;;2.00;99.90;;;;;;5049104;28;20042;-90
2022/12/28 02:33:04;;;;;;;20.20;7.18;;;2.00;99.90;;;;;;5056078;28;20465;-90
2022/12/28 02:35:52;;;;;;;19.40;10.68;;;2.00;99.90;;;;;;4973963;28;20034;-89
2022/12/28 02:38:27;;;;;;;24.48;11.60;;;1.90;99.90;;;;;;4950235;28;20109;-89
2022/12/28 02:41:00;;;;;;;25.35;11.27;;;1.80;99.90;;;;;;4957502;28;20105;-89
2022/12/28 02:43:26;;;;;;;24.90;14.68;;;1.70;99.90;;;;;;4957641;28;20466;-88
2022/12/28 02:52:07;;;;;;;22.73;12.35;;;1.50;99.90;;;;;;4989850;28;20027;-90
2022/12/28 02:58:03;;;;;;;21.98;10.30;;;1.50;99.90;;;;;;4968959;28;20106;-89
2022/12/28 03:01:06;;;;;;;16.17;9.70;;;1.60;99.90;;;;;;4973468;28;20026;-89
2022/12/28 03:03:41;;;;;;;19.02;7.75;;;1.60;99.90;;;;;;5012262;28;20034;-90
2022/12/28 03:09:16;;;;;;;19.40;8.00;;;1.70;99.90;;;;;;4973004;28;20027;-89
2022/12/28 03:11:44;;;;;;;17.08;7.70;;;1.80;99.90;;;;;;4957429;28;20030;-89
2022/12/28 03:14:18;;;;;;;15.10;7.88;;;1.80;99.90;;;;;;5057931;28;20390;-89
2022/12/28 03:31:03;;;;;;;12.23;5.68;;;2.00;99.90;;;;;;4973251;28;20027;-90
2022/12/28 03:33:35;;;;;;;9.50;6.03;;;2.00;99.90;;;;;;5069145;28;20463;-89
2022/12/28 03:36:04;;;;;;;15.63;5.88;;;2.00;99.90;;;;;;4971046;28;20030;-90
2022/12/28 03:38:38;;;;;;;13.45;5.72;;;2.00;99.90;;;;;;4957358;28;20027;-90
2022/12/28 03:41:11;;;;;;;12.77;6.20;;;2.00;99.90;;;;;;4973465;28;20121;-89
2022/12/28 03:43:55;;;;;;;11.82;5.82;;;2.10;99.90;;;;;;4957754;28;20030;-90
2022/12/28 03:46:46;;;;;;;13.52;6.28;;;2.10;99.90;;;;;;5049130;28;20018;-89
2022/12/28 03:49:12;;;;;;;9.65;5.47;;;2.10;99.90;;;;;;4981069;28;20103;-89
2022/12/28 03:51:40;;;;;;;10.00;5.22;;;2.20;99.90;;;;;;4974247;28;20359;-90
2022/12/28 03:54:17;;;;;;;10.15;4.35;;;2.20;99.90;;;;;;4957847;28;20035;-89
2022/12/28 03:56:46;;;;;;;13.52;4.72;;;2.30;99.90;;;;;;4956745;28;20523;-89
2022/12/28 03:59:14;;;;;;;11.38;4.55;;;2.30;99.90;;;;;;5057685;28;20118;-89
2022/12/28 04:01:43;;;;;;;5.57;3.63;;;2.30;99.90;;;;;;4975502;28;20020;-89
2022/12/28 04:04:17;;;;;;;8.15;4.32;;;2.30;99.90;;;;;;5056626;28;20509;-89
2022/12/28 04:06:44;;;;;;;8.95;3.83;;;2.30;99.90;;;;;;4972388;28;20229;-89
2022/12/28 04:09:10;;;;;;;6.75;3.50;;;2.30;99.90;;;;;;5073967;28;20062;-89
2022/12/28 04:11:39;;;;;;;7.63;3.63;;;2.40;99.90;;;;;;4957321;28;20019;-90
2022/12/28 04:14:07;;;;;;;5.25;3.38;;;2.40;99.90;;;;;;4956951;28;20037;-90
2022/12/28 04:16:35;;;;;;;7.78;3.97;;;2.50;99.90;;;;;;4972785;28;20026;-89
2022/12/28 04:19:02;;;;;;;10.05;3.70;;;2.60;99.90;;;;;;5056444;28;20022;-89
2022/12/28 04:22:03;;;;;;;9.43;3.50;;;2.60;99.90;;;;;;4972329;28;20027;-89
2022/12/28 04:24:32;;;;;;;8.10;3.75;;;2.70;99.90;;;;;;4956180;28;20138;-89
2022/12/28 04:26:57;;;;;;;7.97;4.45;;;2.80;99.90;;;;;;5057189;28;20031;-89
2022/12/28 04:29:23;;;;;;;13.85;3.17;;;2.80;99.90;;;;;;4956350;28;20030;-90
2022/12/28 04:31:55;;;;;;;6.90;3.08;;;2.90;99.90;;;;;;5057997;28;20034;-90
2022/12/28 04:34:21;;;;;;;7.20;2.83;;;2.90;99.90;;;;;;4955813;28;20027;-91
2022/12/28 04:37:06;;;;;;;7.53;2.95;;;3.00;99.90;;;;;;4958659;28;20048;-90
2022/12/28 04:39:31;;;;;;;4.95;2.60;;;3.00;99.90;;;;;;4971942;28;20499;-90
2022/12/28 04:41:57;;;;;;;4.57;2.63;;;3.10;99.90;;;;;;4956357;28;20027;-89
2022/12/28 04:44:23;;;;;;;8.73;2.88;;;3.10;99.90;;;;;;4956272;28;20076;-90
2022/12/28 04:46:48;;;;;;;8.48;3.22;;;3.10;99.90;;;;;;4972091;28;20030;-91
2022/12/28 04:49:14;;;;;;;7.25;2.67;;;3.20;99.90;;;;;;4956231;28;20023;-89
2022/12/28 04:51:40;;;;;;;5.50;2.13;;;3.20;99.90;;;;;;4956190;28;20057;-89
2022/12/28 04:54:29;;;;;;;5.88;2.47;;;3.30;99.90;;;;;;4956257;28;20027;-88
2022/12/28 04:56:55;;;;;;;5.65;2.78;;;3.40;99.90;;;;;;4955937;28;20096;-89
2022/12/28 04:59:21;;;;;;;6.22;2.60;;;3.50;99.90;;;;;;5011139;28;20066;-90
2022/12/28 05:01:46;;;;;;;5.47;2.10;;;3.50;99.90;;;;;;4976870;28;20471;-89
2022/12/28 05:04:12;;;;;;;9.68;1.83;;;3.50;99.90;;;;;;5072862;28;20121;-88
2022/12/28 05:06:38;;;;;;;4.63;2.22;;;3.60;99.90;;;;;;4955499;28;20039;-90
2022/12/28 05:09:03;;;;;;;6.35;2.67;;;3.60;99.90;;;;;;5063533;28;20053;-90
2022/12/28 05:11:30;;;;;;;6.13;2.55;;;3.60;99.90;;;;;;4972108;28;20034;-90
2022/12/28 05:14:05;;;;;;;5.88;3.28;;;3.70;99.90;;;;;;5073501;28;20053;-89
2022/12/28 05:16:31;;;;;;;5.95;2.92;;;3.70;99.90;;;;;;4973442;28;20427;-90
2022/12/28 05:18:56;;;;;;;4.25;2.00;;;3.70;99.90;;;;;;5060114;28;20119;-89
2022/12/28 05:21:25;;;;;;;7.13;1.90;;;3.70;99.90;;;;;;4974994;28;20038;-89
2022/12/28 05:23:51;;;;;;;6.28;2.08;;;3.70;99.90;;;;;;4958907;28;20167;-89
2022/12/28 05:26:20;;;;;;;7.78;1.70;;;3.70;99.90;;;;;;4958839;28;20085;-90
2022/12/28 05:28:46;;;;;;;3.47;1.58;;;3.70;99.90;;;;;;4974982;28;20035;-89
2022/12/28 05:31:17;;;;;;;5.03;1.80;;;3.70;99.90;;;;;;4975860;28;20030;-89
2022/12/28 05:33:43;;;;;;;4.38;2.47;;;3.70;99.90;;;;;;4958899;28;20031;-89
2022/12/28 05:36:15;;;;;;;9.88;1.98;;;3.70;99.90;;;;;;4974421;28;20038;-90
2022/12/28 05:38:41;;;;;;;4.13;1.80;;;3.80;99.90;;;;;;4974774;28;20129;-90
2022/12/28 05:41:17;;;;;;;6.63;1.73;;;3.80;99.90;;;;;;4974207;28;20035;-89
2022/12/28 05:43:57;;;;;;;7.20;2.95;;;3.80;99.90;;;;;;4958250;28;20030;-89
2022/12/28 05:46:29;;;;;;;3.97;1.60;;;3.80;99.90;;;;;;4974343;28;20031;-89
2022/12/28 05:49:06;;;;;;;;;;;3.80;99.90;;;;;;4974549;28;20033;-89
2022/12/28 05:51:32;;;;;;;8.23;2.30;;;3.80;99.90;;;;;;4966296;28;19933;-90
2022/12/28 05:53:59;;;;;;;5.03;1.65;;;3.80;99.90;;;;;;4957876;28;20034;-91
2022/12/28 05:56:27;;;;;;;4.35;1.77;;;3.70;99.90;;;;;;4974042;28;20023;-89
2022/12/28 05:58:59;;;;;;;2.80;1.80;;;3.80;99.90;;;;;;4957995;28;20436;-89
2022/12/28 06:01:36;;;;;;;4.38;1.75;;;3.70;99.90;;;;;;5010686;28;20036;-89
2022/12/28 06:04:10;;;;;;;2.70;1.50;;;3.70;99.90;;;;;;5055735;28;20133;-90
2022/12/28 06:06:36;;;;;;;4.78;1.98;;;3.70;99.90;;;;;;4957542;28;20096;-89
2022/12/28 06:09:02;;;;;;;7.35;1.70;;;3.70;99.90;;;;;;5058586;28;20479;-89
2022/12/28 06:11:29;;;;;;;6.93;1.58;;;3.70;99.90;;;;;;4957974;28;20035;-90
2022/12/28 06:13:57;;;;;;;4.57;1.80;;;3.70;99.90;;;;;;5075348;28;20026;-89
2022/12/28 06:16:26;;;;;;;6.35;1.83;;;3.70;99.90;;;;;;4973368;28;20031;-90
2022/12/28 06:18:52;;;;;;;3.95;1.73;;;3.70;99.90;;;;;;5058687;28;20035;-89
2022/12/28 06:21:21;;;;;;;3.97;1.55;;;3.80;99.90;;;;;;5058048;28;20069;-90
2022/12/28 06:23:47;;;;;;;4.95;1.80;;;3.80;99.90;;;;;;4974470;28;20027;-89
2022/12/28 06:26:16;;;;;;;4.10;2.05;;;3.80;99.90;;;;;;4957075;28;20039;-89
2022/12/28 06:28:42;;;;;;;3.13;1.80;;;3.80;99.90;;;;;;4973486;28;20027;-90
2022/12/28 06:31:12;;;;;;;4.70;1.90;;;3.90;99.90;;;;;;4957291;28;20184;-89
2022/12/28 06:33:38;;;;;;;4.07;1.52;;;3.90;99.90;;;;;;4957693;28;20030;-90
2022/12/28 06:36:10;;;;;;;10.13;2.30;;;3.90;99.90;;;;;;4973324;28;20554;-90
2022/12/28 06:38:46;;;;;;;;;;;3.90;99.90;;;;;;4974936;28;20023;-89
2022/12/28 06:41:13;;;;;;;5.57;1.52;;;3.80;99.90;;;;;;4973521;28;19937;-89
2022/12/28 06:43:40;;;;;;;4.90;1.80;;;3.80;99.90;;;;;;4957174;28;20055;-90
2022/12/28 06:46:06;;;;;;;2.58;1.40;;;3.90;99.90;;;;;;5074891;28;20073;-89
2022/12/28 06:48:33;;;;;;;7.50;2.03;;;3.90;99.90;;;;;;4973516;28;20027;-89
2022/12/28 06:51:00;;;;;;;4.90;2.17;;;3.90;99.90;;;;;;4973466;28;20482;-90
2022/12/28 06:53:28;;;;;;;2.45;1.50;;;3.90;99.90;;;;;;5058344;28;20096;-89
2022/12/28 06:56:04;;;;;;;7.28;1.98;;;3.90;99.90;;;;;;5057947;28;20390;-90
2022/12/28 06:58:31;;;;;;;6.32;1.80;;;3.90;99.90;;;;;;5067859;28;20058;-89
2022/12/28 07:01:04;;;;;;;8.57;1.70;;;3.90;99.90;;;;;;5050371;28;20030;-89
2022/12/28 07:03:30;;;;;;;5.55;1.85;;;3.90;99.90;;;;;;5011115;28;20096;-89
2022/12/28 07:06:00;;;;;;;6.13;2.15;;;4.00;99.90;;;;;;4977573;28;20059;-89
2022/12/28 07:08:26;;;;;;;7.10;1.65;;;4.00;99.90;;;;;;5057667;28;20114;-89
2022/12/28 07:11:20;;;;;;;6.32;2.20;;;4.00;99.90;;;;;;4956973;28;20038;-89
2022/12/28 07:13:46;;;;;;;3.53;1.50;;;4.10;99.90;;;;;;4973359;28;20031;-90
2022/12/28 07:16:18;;;;;;;3.10;1.60;;;4.10;99.90;;;;;;4954451;28;20481;-89
2022/12/28 07:22:31;;;;;;;5.72;1.60;;;4.10;99.90;;;;;;4989559;28;20098;-90
2022/12/28 07:24:57;;;;;;;5.68;1.83;;;4.10;99.90;;;;;;4973547;28;20436;-89
2022/12/28 07:27:22;;;;;;;6.65;1.70;;;4.10;99.90;;;;;;4956488;28;20042;-89
2022/12/28 07:29:48;;;;;;;3.30;1.50;;;4.20;99.90;;;;;;4972935;28;20030;-90
2022/12/28 07:32:14;;;;;;;4.10;1.60;;;4.20;99.90;;;;;;4956052;28;20027;-90
2022/12/28 07:34:39;;;;;;;4.88;1.30;;;4.20;99.90;;;;;;4956451;28;20092;-89
2022/12/28 07:37:05;;;;;;;3.00;1.30;;;4.20;99.90;;;;;;4950524;28;20031;-90
2022/12/28 07:39:30;;;;;;;7.75;1.70;;;4.30;99.90;;;;;;4955221;28;20110;-90
2022/12/28 07:41:56;;;;;;;3.40;1.70;;;4.30;99.90;;;;;;4952466;28;20489;-90
2022/12/28 07:44:22;;;;;;;8.00;2.28;;;4.40;99.90;;;;;;4956688;28;20509;-91
2022/12/28 07:46:50;;;;;;;11.45;2.53;;;4.40;99.90;;;;;;4956087;28;20121;-90
2022/12/28 07:49:16;;;;;;;3.90;1.60;;;4.40;99.90;;;;;;4956360;28;20382;-90
2022/12/28 07:51:42;;;;;;;2.22;1.52;;;4.50;99.90;;;;;;4956317;28;20053;-89
2022/12/28 07:54:07;;;;;;;3.55;1.55;;;4.50;99.90;;;;;;4976490;28;20095;-89
2022/12/28 07:56:34;;;;;;;5.63;1.55;;;4.60;99.90;;;;;;4956419;28;20034;-89
2022/12/28 07:59:02;;;;;;;3.78;1.55;;;4.60;99.90;;;;;;4956823;28;20490;-89
2022/12/28 08:01:31;;;;;;;6.15;2.45;;;4.70;99.90;;;;;;5073351;28;20114;-90
2022/12/28 08:03:59;;;;;;;12.27;5.53;;;4.70;99.90;;;;;;4955006;28;20031;-90
2022/12/28 08:06:27;;;;;;;6.15;1.45;;;4.70;99.90;;;;;;4985759;28;20054;-89
2022/12/28 08:08:56;;;;;;;4.90;2.70;;;4.80;99.90;;;;;;5072742;28;20039;-91
2022/12/28 08:11:25;;;;;;;3.65;1.80;;;4.80;99.90;;;;;;4955053;28;20502;-90
2022/12/28 08:14:18;;;;;;;3.70;1.35;;;4.90;99.90;;;;;;5048204;28;20054;-91
2022/12/28 08:16:44;;;;;;;3.17;1.45;;;4.90;99.90;;;;;;4958551;28;20062;-90
2022/12/28 08:19:11;;;;;;;4.85;1.90;;;5.00;99.90;;;;;;4954832;28;20050;-90
2022/12/28 08:21:40;;;;;;;3.83;1.83;;;5.00;99.90;;;;;;4958463;28;20026;-90
2022/12/28 08:24:07;;;;;;;3.60;1.75;;;5.00;99.90;;;;;;4987051;28;20038;-90
2022/12/28 08:26:38;;;;;;;4.20;1.60;;;5.00;99.90;;;;;;5000540;28;20111;-90
2022/12/28 08:29:07;;;;;;;7.00;2.05;;;5.10;99.90;;;;;;4992201;28;20053;-90
2022/12/28 08:31:38;;;;;;;3.05;1.38;;;5.10;99.90;;;;;;4963883;28;20035;-90
2022/12/28 08:34:06;;;;;;;2.83;1.63;;;5.10;99.90;;;;;;4955750;28;20097;-89
2022/12/28 08:36:32;;;;;;;6.38;1.80;;;5.10;99.90;;;;;;4956021;28;20030;-91
2022/12/28 08:39:00;;;;;;;3.15;1.55;;;5.20;99.90;;;;;;4955181;28;20120;-90
2022/12/28 08:41:28;;;;;;;3.53;1.70;;;5.20;99.90;;;;;;4955144;28;20051;-90
2022/12/28 08:43:55;;;;;;;4.57;1.25;;;5.20;99.90;;;;;;4955969;28;20093;-92
2022/12/28 08:46:27;;;;;;;4.93;1.45;;;5.20;99.90;;;;;;4956610;28;20031;-89
2022/12/28 08:48:54;;;;;;;6.03;2.00;;;5.20;99.90;;;;;;4952376;28;20466;-90
2022/12/28 08:51:41;;;;;;;2.33;1.25;;;5.20;99.90;;;;;;4971744;28;20053;-91
2022/12/28 08:54:08;;;;;;;3.75;1.77;;;5.20;99.90;;;;;;4986787;28;20035;-89
2022/12/28 08:56:39;;;;;;;4.70;1.70;;;5.20;99.90;;;;;;4962439;28;20030;-90
2022/12/28 08:59:06;;;;;;;4.80;1.60;;;5.20;99.90;;;;;;4977108;28;20497;-90
2022/12/28 09:01:38;;;;;;;3.80;1.50;;;5.20;99.90;;;;;;4957722;28;20038;-91
2022/12/28 09:04:04;;;;;;;5.63;2.40;;;5.20;99.90;;;;;;5054396;28;20482;-89
2022/12/28 09:06:35;;;;;;;3.50;2.03;;;5.20;99.90;;;;;;4982975;28;20029;-89
2022/12/28 09:09:02;;;;;;;;;;;5.20;99.90;;;;;;4958572;28;20041;-90
2022/12/28 09:11:28;;;;;;;6.95;1.50;;;5.30;99.90;;;;;;4957795;28;19926;-89
2022/12/28 09:14:11;;;;;;;3.17;1.63;;;5.30;99.90;;;;;;5057006;28;20027;-90
2022/12/28 09:16:37;;;;;;;3.30;1.77;;;5.50;99.90;;;;;;4980150;28;20031;-90
2022/12/28 09:19:05;;;;;;;5.38;1.45;;;5.50;99.90;;;;;;5051722;28;20110;-90
2022/12/28 09:21:34;;;;;;;4.50;1.70;;;5.60;99.90;;;;;;4973086;28;20043;-90
2022/12/28 09:24:00;;;;;;;4.88;1.27;;;5.70;99.90;;;;;;5075624;28;20084;-89
2022/12/28 09:26:29;;;;;;;2.60;1.13;;;5.80;99.90;;;;;;4957153;28;20030;-91
2022/12/28 09:28:57;;;;;;;7.15;1.63;;;5.80;99.90;;;;;;5075469;28;20088;-89
2022/12/28 09:31:26;;;;;;;3.38;1.30;;;5.90;99.90;;;;;;4957313;28;20054;-91
2022/12/28 09:33:57;;;;;;;4.28;1.25;;;5.90;99.90;;;;;;4957492;28;20031;-89
2022/12/28 09:36:23;;;;;;;;;;;6.00;99.90;;;;;;4971517;28;20039;-89
2022/12/28 09:38:50;;;;;;;5.47;1.67;;;6.00;99.90;;;;;;5059095;28;19913;-90
2022/12/28 09:41:42;;;;;;;4.57;1.85;;;6.10;99.90;;;;;;4957903;28;20037;-90
2022/12/28 09:44:11;;;;;;;3.67;2.10;;;6.10;99.90;;;;;;4958365;28;20047;-90
2022/12/28 09:46:59;;;;;;;3.92;1.33;;;6.10;99.90;;;;;;5086866;28;20024;-89
2022/12/28 09:49:58;;;;;;;3.58;1.98;;;6.00;99.90;;;;;;4978018;28;20027;-90
2022/12/28 09:52:35;;;;;;;5.40;1.80;;;6.10;99.90;;;;;;4973356;28;20030;-91
2022/12/28 09:55:13;;;;;;;6.78;1.73;;;6.10;99.90;;;;;;4957663;28;20035;-90
2022/12/28 09:57:44;;;;;;;5.57;1.50;;;6.10;99.90;;;;;;4965576;28;20029;-89
2022/12/28 10:00:21;;;;;;;7.43;1.80;;;6.10;99.90;;;;;;4957362;28;20038;-90
2022/12/28 10:02:59;;;;;;;5.30;1.50;;;6.10;99.90;;;;;;4957472;28;20031;-88
2022/12/28 10:05:26;;;;;;;6.70;2.50;;;6.10;99.90;;;;;;4973389;28;20043;-90
2022/12/28 10:07:53;;;;;;;4.50;1.90;;;6.20;99.90;;;;;;4957394;28;20087;-90
2022/12/28 10:10:22;;;;;;;3.47;1.80;;;6.20;99.90;;;;;;5058532;28;20038;-90
2022/12/28 10:12:49;;;;;;;3.08;1.48;;;6.20;99.90;;;;;;4957539;28;20018;-90
2022/12/28 10:15:15;;;;;;;10.40;4.53;;;6.20;99.90;;;;;;4956913;28;20088;-89
2022/12/28 10:17:42;;;;;;;46.35;15.98;;;6.30;99.90;;;;;;4957283;28;20023;-90
2022/12/28 10:20:15;;;;;;;6.93;2.08;;;6.30;99.90;;;;;;4973280;28;20126;-90
2022/12/28 10:22:42;;;;;;;6.65;2.20;;;6.30;99.90;;;;;;4965599;28;20027;-90
2022/12/28 10:25:23;;;;;;;8.55;2.42;;;6.30;99.90;;;;;;4956681;28;20039;-90
2022/12/28 10:27:49;;;;;;;4.38;2.50;;;6.30;99.90;;;;;;5007430;28;20123;-90
2022/12/28 10:30:25;;;;;;;4.78;2.15;;;6.40;99.90;;;;;;4976413;28;20054;-90
2022/12/28 10:32:56;;;;;;;3.92;2.10;;;6.30;99.90;;;;;;4972846;28;20038;-91
2022/12/28 10:35:36;;;;;;;7.97;2.50;;;6.30;99.90;;;;;;5058017;28;20031;-91
2022/12/28 10:38:17;;;;;;;6.22;2.30;;;6.40;99.90;;;;;;4952093;28;20077;-90
2022/12/28 10:40:43;;;;;;;10.18;2.70;;;6.40;99.90;;;;;;4953506;28;20035;-91
2022/12/28 10:43:18;;;;;;;6.75;2.67;;;6.60;99.90;;;;;;4956053;28;20497;-90
2022/12/28 10:45:51;;;;;;;5.47;2.33;;;6.60;99.90;;;;;;4955983;28;20026;-90
2022/12/28 10:48:38;;;;;;;4.13;2.42;;;6.50;99.90;;;;;;4972349;28;20027;-90
2022/12/28 10:51:10;;;;;;;5.13;2.63;;;6.50;99.90;;;;;;4950323;28;20042;-90
2022/12/28 10:53:46;;;;;;;3.47;2.22;;;6.50;99.90;;;;;;4967968;28;20047;-90
2022/12/28 10:56:11;;;;;;;5.68;2.15;;;6.50;99.90;;;;;;4953342;28;20031;-90
2022/12/28 10:58:41;;;;;;;4.30;1.98;;;6.40;99.90;;;;;;4957130;28;20026;-92
2022/12/28 11:01:13;;;;;;;7.43;2.65;;;6.70;99.90;;;;;;4978036;28;20050;-90
2022/12/28 11:03:55;;;;;;;6.22;2.72;;;6.80;99.90;;;;;;4953871;28;20529;-91
2022/12/28 11:06:24;;;;;;;5.88;2.60;;;6.80;99.90;;;;;;4982991;28;20031;-91
2022/12/28 11:09:19;;;;;;;6.70;2.75;;;6.70;99.90;;;;;;4969024;28;20031;-90
2022/12/28 11:11:47;;;;;;;3.83;2.10;;;6.60;99.90;;;;;;4971784;28;20027;-91
2022/12/28 11:14:25;;;;;;;6.78;2.88;;;6.50;99.90;;;;;;4956438;28;20390;-90
2022/12/28 11:16:52;;;;;;;6.15;2.53;;;6.40;99.90;;;;;;4959973;28;20122;-90
2022/12/28 11:19:18;;;;;;;7.50;2.55;;;6.40;99.90;;;;;;4971714;28;20054;-90
2022/12/28 11:21:44;;;;;;;20.98;3.60;;;6.40;99.90;;;;;;4972694;28;20019;-90
2022/12/28 11:24:15;;;;;;;6.10;2.88;;;6.40;99.90;;;;;;4956516;28;20520;-90
2022/12/28 11:26:49;;;;;;;6.45;2.70;;;6.60;99.90;;;;;;4972286;28;20026;-90
2022/12/28 11:29:17;;;;;;;6.35;2.80;;;6.80;99.90;;;;;;5073538;28;20042;-91
2022/12/28 11:32:06;;;;;;;32.60;14.88;;;6.90;99.90;;;;;;5057119;28;20034;-91
2022/12/28 11:34:32;;;;;;;6.20;3.28;;;6.90;99.90;;;;;;4979844;28;20075;-90
2022/12/28 11:36:58;;;;;;;6.45;2.25;;;7.00;99.90;;;;;;4971991;28;20034;-91
2022/12/28 11:39:24;;;;;;;6.22;2.65;;;7.00;99.90;;;;;;4955967;28;20083;-90
2022/12/28 11:41:59;;;;;;;9.65;3.25;;;6.90;99.90;;;;;;4956252;28;20024;-91
2022/12/28 11:44:28;;;;;;;8.15;3.53;;;6.80;99.90;;;;;;4955903;28;20019;-90
2022/12/28 11:47:15;;;;;;;10.07;5.13;;;7.00;99.90;;;;;;4972839;28;20030;-91
2022/12/28 11:49:42;;;;;;;10.63;3.53;;;7.30;99.90;;;;;;5056807;28;20066;-91
2022/12/28 11:52:22;;;;;;;28.13;5.53;;;7.30;99.90;;;;;;4956296;28;20393;-91
2022/12/28 11:54:54;;;;;;;11.82;3.92;;;7.40;99.90;;;;;;5056448;28;20050;-90
2022/12/28 11:57:37;;;;;;;;;;;7.40;99.90;;;;;;4972501;28;20486;-91
2022/12/28 12:00:18;;;;;;;10.40;4.30;;;7.70;99.90;;;;;;4971551;28;19913;-90
2022/12/28 12:02:59;;;;;;;7.75;3.63;;;7.80;99.90;;;;;;4971736;28;20080;-91
2022/12/28 12:05:35;;;;;;;7.30;2.97;;;7.70;99.90;;;;;;4971434;28;20067;-91
2022/12/28 12:08:22;;;;;;;8.35;4.03;;;7.50;99.90;;;;;;4955528;28;20462;-91
2022/12/28 12:11:25;;;;;;;11.63;4.60;;;7.40;99.90;;;;;;4948089;28;20553;-91
2022/12/28 12:13:53;;;;;;;12.32;4.55;;;7.40;99.90;;;;;;4956888;28;20030;-91
2022/12/28 12:16:34;;;;;;;9.95;3.92;;;7.40;99.90;;;;;;4987568;28;20062;-90
2022/12/28 12:19:00;;;;;;;13.93;5.90;;;7.50;99.90;;;;;;4992024;28;20032;-90
2022/12/28 12:21:44;;;;;;;12.98;4.68;;;7.50;99.90;;;;;;4968111;28;20490;-90
2022/12/28 12:24:25;;;;;;;13.18;6.20;;;7.70;99.90;;;;;;4971461;28;20301;-91
2022/12/28 12:27:13;;;;;;;6.20;3.30;;;7.90;99.90;;;;;;4964373;28;20386;-91
2022/12/28 12:29:43;;;;;;;6.43;2.95;;;8.00;99.90;;;;;;4951571;28;20065;-91
2022/12/28 12:32:22;;;;;;;7.22;2.90;;;7.70;99.90;;;;;;4951602;28;20039;-91
2022/12/28 12:34:56;;;;;;;10.50;3.83;;;7.50;99.90;;;;;;5047293;28;20041;-91
2022/12/28 12:37:37;;;;;;;7.07;3.13;;;7.30;99.90;;;;;;4964021;28;20045;-91
2022/12/28 12:40:15;;;;;;;7.70;3.00;;;7.30;99.90;;;;;;4967068;28;20050;-90
2022/12/28 12:43:09;;;;;;;4.47;2.67;;;7.20;99.90;;;;;;4969306;28;20031;-90
2022/12/28 12:45:50;;;;;;;8.00;3.17;;;7.40;99.90;;;;;;4961046;28;20022;-90
2022/12/28 12:48:31;;;;;;;11.85;4.88;;;7.60;99.90;;;;;;4954337;28;20057;-90
2022/12/28 12:51:51;;;;;;;11.73;3.47;;;7.70;99.90;;;;;;4963802;28;20478;-91
2022/12/28 12:54:41;;;;;;;9.52;3.40;;;7.70;99.90;;;;;;4894275;29;20036;-90
2022/12/28 12:57:07;;;;;;;8.90;3.92;;;7.50;99.90;;;;;;4945900;28;20053;-90
2022/12/28 13:00:12;;;;;;;6.00;2.95;;;7.50;99.90;;;;;;4946330;28;20019;-90
2022/12/28 13:02:59;;;;;;;7.18;3.17;;;7.40;99.90;;;;;;4954442;28;20038;-91
2022/12/28 13:05:27;;;;;;;4.97;2.63;;;7.30;99.90;;;;;;4952166;28;20031;-90
2022/12/28 13:07:55;;;;;;;9.82;2.80;;;7.40;99.90;;;;;;4968870;28;20030;-90
2022/12/28 13:10:27;;;;;;;7.25;2.50;;;7.40;99.90;;;;;;4969060;28;20114;-91
2022/12/28 13:12:56;;;;;;;5.35;2.70;;;7.40;99.90;;;;;;4953410;28;20069;-91
2022/12/28 13:15:22;;;;;;;5.65;2.55;;;7.50;99.90;;;;;;4950763;28;20088;-90
2022/12/28 13:18:16;;;;;;;7.75;2.92;;;7.40;99.90;;;;;;4948140;28;20118;-90
2022/12/28 13:20:52;;;;;;;4.88;2.22;;;7.30;99.90;;;;;;4969302;28;20035;-91
2022/12/28 13:23:20;;;;;;;5.60;2.42;;;7.20;99.90;;;;;;5060877;28;20039;-90
2022/12/28 13:25:50;;;;;;;6.03;3.00;;;7.00;99.90;;;;;;5052533;28;20114;-90
2022/12/28 13:28:28;;;;;;;9.95;3.88;;;7.00;99.90;;;;;;4954722;28;20019;-91
2022/12/28 13:31:21;;;;;;;8.52;2.75;;;6.90;99.90;;;;;;5070556;28;20045;-91
2022/12/28 13:33:58;;;;;;;3.80;2.20;;;7.00;99.90;;;;;;4953534;28;20168;-90
2022/12/28 13:36:24;;;;;;;5.93;2.53;;;6.90;99.90;;;;;;5050325;28;20043;-90
2022/12/28 13:39:11;;;;;;;6.50;2.05;;;7.00;99.90;;;;;;5058170;28;20031;-90
2022/12/28 13:41:44;;;;;;;6.57;2.65;;;7.00;99.90;;;;;;4971342;28;20039;-91
2022/12/28 13:44:31;;;;;;;7.40;2.80;;;7.00;99.90;;;;;;4957168;28;20110;-91
2022/12/28 13:47:11;;;;;;;6.40;2.35;;;6.90;99.90;;;;;;4950326;28;20486;-90
2022/12/28 13:49:57;;;;;;;10.83;2.30;;;6.90;99.90;;;;;;4954270;28;20035;-91
2022/12/28 13:52:36;;;;;;;4.63;1.90;;;6.90;99.90;;;;;;4947038;28;20478;-91